createdAt,value
2022-09-03T00:05:27.999Z,3561
2022-09-03T00:15:27.991Z,3563
2022-09-03T00:25:28.003Z,3561
2022-09-03T00:35:27.942Z,3563
2022-09-03T00:45:27.926Z,3563
2022-09-03T00:55:27.904Z,3563
2022-09-03T01:05:27.912Z,3563
2022-09-03T01:15:27.952Z,3561
2022-09-03T01:25:27.873Z,3563
2022-09-03T01:35:27.827Z,3561
2022-09-03T01:45:27.799Z,3561
2022-09-03T01:55:27.785Z,3558
2022-09-03T02:05:27.799Z,3561
2022-09-03T02:15:27.783Z,3561
2022-09-03T02:25:27.754Z,3563
2022-09-03T02:35:27.697Z,3561
2022-09-03T02:45:27.682Z,3561
2022-09-03T02:55:27.663Z,3563
2022-09-03T03:05:27.680Z,3561
2022-09-03T03:15:27.622Z,3563
2022-09-03T03:25:27.647Z,3561
2022-09-03T03:35:27.589Z,3563
2022-09-03T03:45:27.604Z,3563
2022-09-03T03:55:27.542Z,3561
2022-09-03T04:05:27.531Z,3561
2022-09-03T04:15:27.548Z,3558
2022-09-03T04:25:27.518Z,3561
2022-09-03T04:35:27.475Z,3558
2022-09-03T04:45:27.543Z,3561
2022-09-03T04:55:27.437Z,3561
2022-09-03T05:05:27.413Z,3561
2022-09-03T05:15:27.440Z,3558
2022-09-03T05:25:27.417Z,3558
2022-09-03T05:45:27.432Z,3561
2022-09-03T05:55:27.322Z,3558
2022-09-03T06:05:27.294Z,3558
2022-09-03T06:15:27.327Z,3558
2022-09-03T06:25:27.325Z,3561
2022-09-03T06:35:27.234Z,3558
2022-09-03T06:45:27.270Z,3558
2022-09-03T06:55:27.213Z,3563
2022-09-03T07:05:27.192Z,3563
2022-09-03T07:15:27.222Z,3563
2022-09-03T07:25:27.185Z,3561
2022-09-03T07:35:27.128Z,3563
2022-09-03T07:45:27.150Z,3563
2022-09-03T07:55:27.076Z,3563
2022-09-03T08:05:27.063Z,3563
2022-09-03T08:15:27.079Z,3563
2022-09-03T08:25:27.028Z,3563
2022-09-03T08:35:27.018Z,3563
2022-09-03T08:45:27.009Z,3563
2022-09-03T08:55:26.969Z,3563
2022-09-03T09:05:26.944Z,3566
2022-09-03T09:15:26.960Z,3563
2022-09-03T09:25:26.908Z,3566
2022-09-03T09:35:26.883Z,3569
2022-09-03T09:45:26.902Z,3571
2022-09-03T09:55:26.853Z,3571
2022-09-03T10:05:26.823Z,3574
2022-09-03T10:15:26.838Z,3579
2022-09-03T10:25:26.804Z,3579
2022-09-03T10:35:26.752Z,3579
2022-09-03T10:45:26.776Z,3579
2022-09-03T10:55:26.709Z,3579
2022-09-03T11:05:26.722Z,3579
2022-09-03T11:15:27.987Z,3579
2022-09-03T11:25:26.649Z,3579
2022-09-03T11:35:26.620Z,3579
2022-09-03T11:45:26.640Z,3579
2022-09-03T11:55:26.581Z,3579
2022-09-03T12:05:26.559Z,3579
2022-09-03T12:15:26.571Z,3581
2022-09-03T12:25:26.534Z,3584
2022-09-03T12:46:09.395Z,3584
2022-09-03T12:55:27.739Z,3584
2022-09-03T13:05:26.420Z,3584
2022-09-03T13:15:26.407Z,3584
2022-09-03T13:25:26.526Z,3587
2022-09-03T13:35:26.364Z,3584
2022-09-03T13:45:26.353Z,3584
2022-09-03T13:55:26.354Z,3587
2022-09-03T14:05:26.303Z,3584
2022-09-03T14:15:26.301Z,3587
2022-09-03T14:25:26.300Z,3584
2022-09-03T14:35:26.229Z,3587
2022-09-03T14:45:26.302Z,3589
2022-09-03T14:55:26.233Z,3589
2022-09-03T15:05:26.179Z,3589
2022-09-03T15:15:26.159Z,3592
2022-09-03T15:25:26.210Z,3589
2022-09-03T15:35:26.110Z,3589
2022-09-03T15:45:26.143Z,3584
2022-09-03T15:55:26.143Z,3589
2022-09-03T16:05:26.045Z,3589
2022-09-03T16:15:26.019Z,3589
2022-09-03T16:35:26.020Z,3589
2022-09-03T16:45:26.029Z,3589
2022-09-03T16:55:25.981Z,3589
2022-09-03T17:05:26.630Z,3589
2022-09-03T17:15:25.895Z,3589
2022-09-03T17:25:25.907Z,3587
2022-09-03T17:35:25.848Z,3587
2022-09-03T17:45:25.871Z,3584
2022-09-03T17:55:25.842Z,3584
2022-09-03T18:05:25.805Z,3584
2022-09-03T18:15:25.800Z,3584
2022-09-03T18:25:25.771Z,3581
2022-09-03T18:35:25.726Z,3579
2022-09-03T18:45:33.277Z,3579
2022-09-03T18:55:25.716Z,3579
2022-09-03T19:05:25.654Z,3579
2022-09-03T19:15:25.639Z,3574
2022-09-03T19:25:25.643Z,3571
2022-09-03T19:35:25.590Z,3574
2022-09-03T19:45:25.581Z,3569
2022-09-03T19:55:25.587Z,3569
2022-09-03T20:05:25.536Z,3569
2022-09-03T20:15:25.580Z,3566
2022-09-03T20:25:25.528Z,3563
2022-09-03T20:35:25.480Z,3563
2022-09-03T20:55:25.488Z,3563
2022-09-03T21:05:25.416Z,3563
2022-09-03T21:15:25.427Z,3563
2022-09-03T21:25:25.409Z,3563
2022-09-03T21:35:25.356Z,3563
2022-09-03T21:45:25.377Z,3561
2022-09-03T21:55:25.357Z,3563
2022-09-03T22:05:25.311Z,3561
2022-09-03T22:15:25.350Z,3561
2022-09-03T22:25:25.290Z,3561
2022-09-03T22:35:25.244Z,3561
2022-09-03T22:45:25.264Z,3558
2022-09-03T22:55:25.235Z,3558
2022-09-03T23:05:25.194Z,3561
2022-09-03T23:15:25.197Z,3558
2022-09-03T23:25:25.204Z,3558
2022-09-03T23:35:25.125Z,3558
2022-09-03T23:45:25.308Z,3558
2022-09-03T23:55:25.125Z,3558
